sensor_id;sensor_type;location;lat;lon;timestamp;P1;durP1;ratioP1;P2;durP2;ratioP2
13951;SDS011;39535;52.192;9.886;2023-11-19T00:00:10;0.50;;;0.50;;
13951;SDS011;39535;52.192;9.886;2023-11-19T00:02:37;2.20;;;0.50;;
13951;SDS011;39535;52.192;9.886;2023-11-19T00:05:04;1.60;;;0.80;;
13951;SDS011;39535;52.192;9.886;2023-11-19T00:07:35;0.60;;;0.60;;
13951;SDS011;39535;52.192;9.886;2023-11-19T00:10:02;0.57;;;0.57;;
13951;SDS011;39535;52.192;9.886;2023-11-19T00:12:35;1.43;;;0.63;;
13951;SDS011;39535;52.192;9.886;2023-11-19T00:15:02;0.60;;;0.60;;
13951;SDS011;39535;52.192;9.886;2023-11-19T00:17:29;0.53;;;0.53;;
13951;SDS011;39535;52.192;9.886;2023-11-19T00:19:56;0.50;;;0.50;;
13951;SDS011;39535;52.192;9.886;2023-11-19T00:22:23;0.50;;;0.50;;
13951;SDS011;39535;52.192;9.886;2023-11-19T00:24:52;0.50;;;0.50;;
13951;SDS011;39535;52.192;9.886;2023-11-19T00:27:18;0.50;;;0.50;;
13951;SDS011;39535;52.192;9.886;2023-11-19T00:29:45;0.60;;;0.60;;
13951;SDS011;39535;52.192;9.886;2023-11-19T00:32:12;0.53;;;0.53;;
13951;SDS011;39535;52.192;9.886;2023-11-19T00:34:38;0.50;;;0.50;;
13951;SDS011;39535;52.192;9.886;2023-11-19T00:37:04;0.50;;;0.50;;
13951;SDS011;39535;52.192;9.886;2023-11-19T00:39:31;0.57;;;0.57;;
13951;SDS011;39535;52.192;9.886;2023-11-19T00:41:59;0.73;;;0.70;;
13951;SDS011;39535;52.192;9.886;2023-11-19T00:44:25;0.40;;;0.40;;
13951;SDS011;39535;52.192;9.886;2023-11-19T00:46:52;0.60;;;0.60;;
13951;SDS011;39535;52.192;9.886;2023-11-19T00:49:18;1.17;;;0.60;;
13951;SDS011;39535;52.192;9.886;2023-11-19T00:51:45;0.90;;;0.60;;
13951;SDS011;39535;52.192;9.886;2023-11-19T00:54:11;1.13;;;0.60;;
13951;SDS011;39535;52.192;9.886;2023-11-19T00:56:37;0.60;;;0.60;;
13951;SDS011;39535;52.192;9.886;2023-11-19T00:59:06;0.60;;;0.60;;
13951;SDS011;39535;52.192;9.886;2023-11-19T01:01:32;0.60;;;0.60;;
13951;SDS011;39535;52.192;9.886;2023-11-19T01:03:59;0.40;;;0.40;;
13951;SDS011;39535;52.192;9.886;2023-11-19T01:06:28;0.70;;;0.70;;
13951;SDS011;39535;52.192;9.886;2023-11-19T01:08:56;1.07;;;0.50;;
13951;SDS011;39535;52.192;9.886;2023-11-19T01:11:23;0.60;;;0.60;;
13951;SDS011;39535;52.192;9.886;2023-11-19T01:13:50;0.60;;;0.60;;
13951;SDS011;39535;52.192;9.886;2023-11-19T01:16:19;0.50;;;0.50;;
13951;SDS011;39535;52.192;9.886;2023-11-19T01:18:46;0.73;;;0.60;;
13951;SDS011;39535;52.192;9.886;2023-11-19T01:21:13;0.60;;;0.60;;
13951;SDS011;39535;52.192;9.886;2023-11-19T01:23:39;0.77;;;0.77;;
13951;SDS011;39535;52.192;9.886;2023-11-19T01:26:08;0.60;;;0.60;;
13951;SDS011;39535;52.192;9.886;2023-11-19T01:28:35;0.47;;;0.47;;
13951;SDS011;39535;52.192;9.886;2023-11-19T01:31:01;0.70;;;0.70;;
13951;SDS011;39535;52.192;9.886;2023-11-19T01:33:29;0.53;;;0.43;;
13951;SDS011;39535;52.192;9.886;2023-11-19T01:35:56;0.50;;;0.50;;
13951;SDS011;39535;52.192;9.886;2023-11-19T01:38:23;0.50;;;0.50;;
13951;SDS011;39535;52.192;9.886;2023-11-19T01:40:50;0.70;;;0.70;;
13951;SDS011;39535;52.192;9.886;2023-11-19T01:43:30;0.77;;;0.60;;
13951;SDS011;39535;52.192;9.886;2023-11-19T01:45:58;0.73;;;0.70;;
13951;SDS011;39535;52.192;9.886;2023-11-19T01:48:23;0.47;;;0.47;;
13951;SDS011;39535;52.192;9.886;2023-11-19T01:50:51;2.37;;;0.70;;
13951;SDS011;39535;52.192;9.886;2023-11-19T01:53:19;0.60;;;0.60;;
13951;SDS011;39535;52.192;9.886;2023-11-19T01:55:46;0.60;;;0.60;;
13951;SDS011;39535;52.192;9.886;2023-11-19T01:58:12;0.77;;;0.63;;
13951;SDS011;39535;52.192;9.886;2023-11-19T02:00:39;0.70;;;0.70;;
13951;SDS011;39535;52.192;9.886;2023-11-19T02:03:06;0.57;;;0.57;;
13951;SDS011;39535;52.192;9.886;2023-11-19T02:05:33;0.57;;;0.57;;
13951;SDS011;39535;52.192;9.886;2023-11-19T02:08:03;0.73;;;0.50;;
13951;SDS011;39535;52.192;9.886;2023-11-19T02:10:30;0.50;;;0.50;;
13951;SDS011;39535;52.192;9.886;2023-11-19T02:12:57;0.77;;;0.50;;
13951;SDS011;39535;52.192;9.886;2023-11-19T02:15:23;0.57;;;0.57;;
13951;SDS011;39535;52.192;9.886;2023-11-19T02:17:50;1.60;;;0.57;;
13951;SDS011;39535;52.192;9.886;2023-11-19T02:20:17;0.73;;;0.60;;
13951;SDS011;39535;52.192;9.886;2023-11-19T02:22:45;0.40;;;0.40;;
13951;SDS011;39535;52.192;9.886;2023-11-19T02:25:17;0.60;;;0.50;;
13951;SDS011;39535;52.192;9.886;2023-11-19T02:27:52;0.67;;;0.50;;
13951;SDS011;39535;52.192;9.886;2023-11-19T02:30:21;0.60;;;0.60;;
13951;SDS011;39535;52.192;9.886;2023-11-19T02:32:51;0.60;;;0.60;;
13951;SDS011;39535;52.192;9.886;2023-11-19T02:35:18;0.57;;;0.57;;
13951;SDS011;39535;52.192;9.886;2023-11-19T02:37:44;1.20;;;0.50;;
13951;SDS011;39535;52.192;9.886;2023-11-19T02:40:11;2.13;;;0.50;;
13951;SDS011;39535;52.192;9.886;2023-11-19T02:42:38;0.30;;;0.30;;
13951;SDS011;39535;52.192;9.886;2023-11-19T02:45:07;0.40;;;0.40;;
13951;SDS011;39535;52.192;9.886;2023-11-19T02:47:39;0.40;;;0.40;;
13951;SDS011;39535;52.192;9.886;2023-11-19T02:50:06;0.30;;;0.30;;
13951;SDS011;39535;52.192;9.886;2023-11-19T02:52:38;0.30;;;0.30;;
13951;SDS011;39535;52.192;9.886;2023-11-19T02:55:06;0.40;;;0.40;;
13951;SDS011;39535;52.192;9.886;2023-11-19T02:57:34;0.40;;;0.40;;
13951;SDS011;39535;52.192;9.886;2023-11-19T03:00:01;1.13;;;0.30;;
13951;SDS011;39535;52.192;9.886;2023-11-19T03:02:38;0.40;;;0.40;;
13951;SDS011;39535;52.192;9.886;2023-11-19T03:05:09;0.90;;;0.57;;
13951;SDS011;39535;52.192;9.886;2023-11-19T03:07:36;0.43;;;0.40;;
13951;SDS011;39535;52.192;9.886;2023-11-19T03:10:02;0.40;;;0.40;;
13951;SDS011;39535;52.192;9.886;2023-11-19T03:12:30;0.40;;;0.40;;
13951;SDS011;39535;52.192;9.886;2023-11-19T03:14:57;0.50;;;0.50;;
13951;SDS011;39535;52.192;9.886;2023-11-19T03:17:23;1.50;;;0.60;;
13951;SDS011;39535;52.192;9.886;2023-11-19T03:19:51;0.60;;;0.60;;
13951;SDS011;39535;52.192;9.886;2023-11-19T03:22:18;0.47;;;0.47;;
13951;SDS011;39535;52.192;9.886;2023-11-19T03:24:45;0.50;;;0.50;;
13951;SDS011;39535;52.192;9.886;2023-11-19T03:27:12;0.80;;;0.40;;
13951;SDS011;39535;52.192;9.886;2023-11-19T03:29:38;0.50;;;0.50;;
13951;SDS011;39535;52.192;9.886;2023-11-19T03:32:05;0.60;;;0.60;;
13951;SDS011;39535;52.192;9.886;2023-11-19T03:34:31;0.60;;;0.60;;
13951;SDS011;39535;52.192;9.886;2023-11-19T03:36:59;0.80;;;0.67;;
13951;SDS011;39535;52.192;9.886;2023-11-19T03:39:26;0.90;;;0.80;;
13951;SDS011;39535;52.192;9.886;2023-11-19T03:41:52;0.80;;;0.80;;
13951;SDS011;39535;52.192;9.886;2023-11-19T03:44:18;0.70;;;0.70;;
13951;SDS011;39535;52.192;9.886;2023-11-19T03:46:45;1.27;;;0.70;;
13951;SDS011;39535;52.192;9.886;2023-11-19T03:49:11;0.60;;;0.60;;
13951;SDS011;39535;52.192;9.886;2023-11-19T03:51:38;0.70;;;0.70;;
13951;SDS011;39535;52.192;9.886;2023-11-19T03:54:06;0.90;;;0.80;;
13951;SDS011;39535;52.192;9.886;2023-11-19T03:56:32;1.70;;;0.67;;
13951;SDS011;39535;52.192;9.886;2023-11-19T03:58:59;0.70;;;0.70;;
13951;SDS011;39535;52.192;9.886;2023-11-19T04:01:25;0.60;;;0.60;;
13951;SDS011;39535;52.192;9.886;2023-11-19T04:03:52;0.80;;;0.80;;
13951;SDS011;39535;52.192;9.886;2023-11-19T04:06:18;0.70;;;0.70;;
13951;SDS011;39535;52.192;9.886;2023-11-19T04:08:44;0.80;;;0.80;;
13951;SDS011;39535;52.192;9.886;2023-11-19T04:11:12;2.50;;;1.00;;
13951;SDS011;39535;52.192;9.886;2023-11-19T04:13:38;0.97;;;0.87;;
13951;SDS011;39535;52.192;9.886;2023-11-19T04:16:05;1.20;;;1.10;;
13951;SDS011;39535;52.192;9.886;2023-11-19T04:18:32;1.33;;;1.23;;
13951;SDS011;39535;52.192;9.886;2023-11-19T04:20:58;1.60;;;1.50;;
13951;SDS011;39535;52.192;9.886;2023-11-19T04:23:25;1.53;;;1.27;;
13951;SDS011;39535;52.192;9.886;2023-11-19T04:25:51;2.63;;;1.53;;
13951;SDS011;39535;52.192;9.886;2023-11-19T04:28:19;3.50;;;1.60;;
13951;SDS011;39535;52.192;9.886;2023-11-19T04:30:45;2.00;;;1.90;;
13951;SDS011;39535;52.192;9.886;2023-11-19T04:33:12;3.33;;;2.30;;
13951;SDS011;39535;52.192;9.886;2023-11-19T04:35:38;5.33;;;2.50;;
13951;SDS011;39535;52.192;9.886;2023-11-19T04:38:05;3.00;;;2.27;;
13951;SDS011;39535;52.192;9.886;2023-11-19T04:40:31;3.40;;;3.10;;
13951;SDS011;39535;52.192;9.886;2023-11-19T04:42:58;3.93;;;2.97;;
13951;SDS011;39535;52.192;9.886;2023-11-19T04:45:26;3.17;;;2.87;;
13951;SDS011;39535;52.192;9.886;2023-11-19T04:47:52;3.23;;;2.93;;
13951;SDS011;39535;52.192;9.886;2023-11-19T04:50:18;3.30;;;3.00;;
13951;SDS011;39535;52.192;9.886;2023-11-19T04:52:44;7.07;;;2.57;;
13951;SDS011;39535;52.192;9.886;2023-11-19T04:55:12;2.60;;;2.40;;
13951;SDS011;39535;52.192;9.886;2023-11-19T04:57:39;3.07;;;2.57;;
13951;SDS011;39535;52.192;9.886;2023-11-19T05:00:06;4.20;;;2.03;;
13951;SDS011;39535;52.192;9.886;2023-11-19T05:02:35;5.60;;;2.90;;
13951;SDS011;39535;52.192;9.886;2023-11-19T05:05:01;4.57;;;2.33;;
13951;SDS011;39535;52.192;9.886;2023-11-19T05:07:28;3.70;;;2.97;;
13951;SDS011;39535;52.192;9.886;2023-11-19T05:09:55;2.70;;;2.33;;
13951;SDS011;39535;52.192;9.886;2023-11-19T05:12:21;3.10;;;2.53;;
13951;SDS011;39535;52.192;9.886;2023-11-19T05:14:48;2.87;;;2.67;;
13951;SDS011;39535;52.192;9.886;2023-11-19T05:17:15;3.00;;;2.40;;
13951;SDS011;39535;52.192;9.886;2023-11-19T05:19:44;2.40;;;2.20;;
13951;SDS011;39535;52.192;9.886;2023-11-19T05:22:10;4.03;;;2.60;;
13951;SDS011;39535;52.192;9.886;2023-11-19T05:24:37;2.53;;;2.33;;
13951;SDS011;39535;52.192;9.886;2023-11-19T05:27:04;2.30;;;2.20;;
13951;SDS011;39535;52.192;9.886;2023-11-19T05:29:32;2.67;;;2.47;;
13951;SDS011;39535;52.192;9.886;2023-11-19T05:31:58;2.80;;;2.20;;
13951;SDS011;39535;52.192;9.886;2023-11-19T05:34:25;2.77;;;2.50;;
13951;SDS011;39535;52.192;9.886;2023-11-19T05:36:52;2.57;;;2.10;;
13951;SDS011;39535;52.192;9.886;2023-11-19T05:39:19;2.47;;;2.13;;
13951;SDS011;39535;52.192;9.886;2023-11-19T05:41:45;3.03;;;2.50;;
13951;SDS011;39535;52.192;9.886;2023-11-19T05:44:12;4.00;;;2.83;;
13951;SDS011;39535;52.192;9.886;2023-11-19T05:46:38;4.57;;;2.57;;
13951;SDS011;39535;52.192;9.886;2023-11-19T05:49:07;3.77;;;2.83;;
13951;SDS011;39535;52.192;9.886;2023-11-19T05:51:35;4.40;;;2.80;;
13951;SDS011;39535;52.192;9.886;2023-11-19T05:54:05;5.70;;;2.97;;
13951;SDS011;39535;52.192;9.886;2023-11-19T05:56:32;3.87;;;3.00;;
13951;SDS011;39535;52.192;9.886;2023-11-19T05:58:59;4.43;;;3.60;;
13951;SDS011;39535;52.192;9.886;2023-11-19T06:01:26;2.70;;;2.50;;
13951;SDS011;39535;52.192;9.886;2023-11-19T06:03:52;3.60;;;3.30;;
13951;SDS011;39535;52.192;9.886;2023-11-19T06:06:19;6.77;;;2.90;;
13951;SDS011;39535;52.192;9.886;2023-11-19T06:08:49;4.17;;;3.30;;
13951;SDS011;39535;52.192;9.886;2023-11-19T06:11:17;5.60;;;3.37;;
13951;SDS011;39535;52.192;9.886;2023-11-19T06:13:45;9.07;;;3.90;;
13951;SDS011;39535;52.192;9.886;2023-11-19T06:16:12;5.13;;;4.53;;
13951;SDS011;39535;52.192;9.886;2023-11-19T06:18:39;8.53;;;4.77;;
13951;SDS011;39535;52.192;9.886;2023-11-19T06:21:06;9.60;;;5.30;;
13951;SDS011;39535;52.192;9.886;2023-11-19T06:23:33;10.63;;;6.70;;
13951;SDS011;39535;52.192;9.886;2023-11-19T06:25:59;8.63;;;6.00;;
13951;SDS011;39535;52.192;9.886;2023-11-19T06:28:28;12.60;;;7.47;;
13951;SDS011;39535;52.192;9.886;2023-11-19T06:30:54;12.43;;;8.37;;
13951;SDS011;39535;52.192;9.886;2023-11-19T06:33:22;12.77;;;8.83;;
13951;SDS011;39535;52.192;9.886;2023-11-19T06:35:48;15.30;;;6.83;;
13951;SDS011;39535;52.192;9.886;2023-11-19T06:38:15;10.87;;;7.97;;
13951;SDS011;39535;52.192;9.886;2023-11-19T06:40:41;13.40;;;6.97;;
13951;SDS011;39535;52.192;9.886;2023-11-19T06:43:08;10.30;;;7.00;;
13951;SDS011;39535;52.192;9.886;2023-11-19T06:45:38;12.90;;;6.17;;
13951;SDS011;39535;52.192;9.886;2023-11-19T06:48:05;14.93;;;4.97;;
13951;SDS011;39535;52.192;9.886;2023-11-19T06:50:32;12.10;;;4.27;;
13951;SDS011;39535;52.192;9.886;2023-11-19T06:52:58;14.07;;;5.67;;
13951;SDS011;39535;52.192;9.886;2023-11-19T06:55:25;9.73;;;5.80;;
13951;SDS011;39535;52.192;9.886;2023-11-19T06:57:52;10.77;;;5.20;;
13951;SDS011;39535;52.192;9.886;2023-11-19T07:00:18;10.43;;;4.77;;
13951;SDS011;39535;52.192;9.886;2023-11-19T07:02:46;12.10;;;5.63;;
13951;SDS011;39535;52.192;9.886;2023-11-19T07:05:13;10.80;;;5.50;;
13951;SDS011;39535;52.192;9.886;2023-11-19T07:07:39;12.17;;;5.30;;
13951;SDS011;39535;52.192;9.886;2023-11-19T07:10:06;11.30;;;4.50;;
13951;SDS011;39535;52.192;9.886;2023-11-19T07:12:34;7.30;;;4.30;;
13951;SDS011;39535;52.192;9.886;2023-11-19T07:15:01;8.83;;;4.50;;
13951;SDS011;39535;52.192;9.886;2023-11-19T07:17:28;9.90;;;5.37;;
13951;SDS011;39535;52.192;9.886;2023-11-19T07:19:55;9.70;;;4.57;;
13951;SDS011;39535;52.192;9.886;2023-11-19T07:22:24;15.80;;;5.43;;
13951;SDS011;39535;52.192;9.886;2023-11-19T07:24:51;11.80;;;5.60;;
13951;SDS011;39535;52.192;9.886;2023-11-19T07:27:18;17.37;;;6.20;;
13951;SDS011;39535;52.192;9.886;2023-11-19T07:29:44;10.33;;;6.13;;
13951;SDS011;39535;52.192;9.886;2023-11-19T07:32:11;11.43;;;5.73;;
13951;SDS011;39535;52.192;9.886;2023-11-19T07:34:38;11.77;;;6.50;;
13951;SDS011;39535;52.192;9.886;2023-11-19T07:37:06;13.03;;;4.80;;
13951;SDS011;39535;52.192;9.886;2023-11-19T07:39:32;15.10;;;5.03;;
13951;SDS011;39535;52.192;9.886;2023-11-19T07:42:00;13.40;;;5.30;;
13951;SDS011;39535;52.192;9.886;2023-11-19T07:44:26;10.93;;;5.63;;
13951;SDS011;39535;52.192;9.886;2023-11-19T07:46:53;10.23;;;5.93;;
13951;SDS011;39535;52.192;9.886;2023-11-19T07:49:19;12.27;;;5.30;;
13951;SDS011;39535;52.192;9.886;2023-11-19T07:51:46;11.80;;;6.57;;
13951;SDS011;39535;52.192;9.886;2023-11-19T07:54:13;12.30;;;4.47;;
13951;SDS011;39535;52.192;9.886;2023-11-19T07:56:40;9.70;;;5.47;;
13951;SDS011;39535;52.192;9.886;2023-11-19T07:59:08;8.27;;;4.67;;
13951;SDS011;39535;52.192;9.886;2023-11-19T08:01:35;13.60;;;5.50;;
13951;SDS011;39535;52.192;9.886;2023-11-19T08:04:01;13.97;;;6.37;;
13951;SDS011;39535;52.192;9.886;2023-11-19T08:06:28;15.50;;;6.37;;
13951;SDS011;39535;52.192;9.886;2023-11-19T08:08:54;14.63;;;5.47;;
13951;SDS011;39535;52.192;9.886;2023-11-19T08:11:22;11.87;;;4.80;;
13951;SDS011;39535;52.192;9.886;2023-11-19T08:13:49;16.50;;;6.33;;
13951;SDS011;39535;52.192;9.886;2023-11-19T08:16:15;15.07;;;5.13;;
13951;SDS011;39535;52.192;9.886;2023-11-19T08:18:42;9.63;;;5.03;;
13951;SDS011;39535;52.192;9.886;2023-11-19T08:21:09;17.13;;;6.07;;
13951;SDS011;39535;52.192;9.886;2023-11-19T08:23:35;11.33;;;5.17;;
13951;SDS011;39535;52.192;9.886;2023-11-19T08:26:03;14.67;;;5.40;;
13951;SDS011;39535;52.192;9.886;2023-11-19T08:28:31;11.23;;;6.20;;
13951;SDS011;39535;52.192;9.886;2023-11-19T08:30:59;11.87;;;5.53;;
13951;SDS011;39535;52.192;9.886;2023-11-19T08:33:26;15.53;;;4.73;;
13951;SDS011;39535;52.192;9.886;2023-11-19T08:35:52;14.23;;;4.47;;
13951;SDS011;39535;52.192;9.886;2023-11-19T08:38:19;17.23;;;4.87;;
13951;SDS011;39535;52.192;9.886;2023-11-19T08:40:45;13.57;;;5.03;;
13951;SDS011;39535;52.192;9.886;2023-11-19T08:43:12;13.27;;;4.30;;
13951;SDS011;39535;52.192;9.886;2023-11-19T08:45:39;12.07;;;4.60;;
13951;SDS011;39535;52.192;9.886;2023-11-19T08:48:06;15.30;;;4.10;;
13951;SDS011;39535;52.192;9.886;2023-11-19T08:50:32;19.07;;;5.47;;
13951;SDS011;39535;52.192;9.886;2023-11-19T08:52:59;15.80;;;5.40;;
13951;SDS011;39535;52.192;9.886;2023-11-19T08:55:26;12.43;;;4.50;;
13951;SDS011;39535;52.192;9.886;2023-11-19T08:57:52;17.93;;;6.67;;
13951;SDS011;39535;52.192;9.886;2023-11-19T09:00:19;16.10;;;5.33;;
13951;SDS011;39535;52.192;9.886;2023-11-19T09:02:47;16.63;;;5.30;;
13951;SDS011;39535;52.192;9.886;2023-11-19T09:05:14;15.63;;;5.33;;
13951;SDS011;39535;52.192;9.886;2023-11-19T09:07:40;17.20;;;5.00;;
13951;SDS011;39535;52.192;9.886;2023-11-19T09:10:07;16.63;;;5.13;;
13951;SDS011;39535;52.192;9.886;2023-11-19T09:12:34;16.90;;;5.73;;
13951;SDS011;39535;52.192;9.886;2023-11-19T09:15:00;13.17;;;4.13;;
13951;SDS011;39535;52.192;9.886;2023-11-19T09:17:27;20.77;;;5.53;;
13951;SDS011;39535;52.192;9.886;2023-11-19T09:19:55;15.13;;;5.13;;
13951;SDS011;39535;52.192;9.886;2023-11-19T09:22:21;19.70;;;4.67;;
13951;SDS011;39535;52.192;9.886;2023-11-19T09:24:48;18.40;;;5.40;;
13951;SDS011;39535;52.192;9.886;2023-11-19T09:27:15;22.43;;;7.67;;
13951;SDS011;39535;52.192;9.886;2023-11-19T09:29:41;22.00;;;6.27;;
13951;SDS011;39535;52.192;9.886;2023-11-19T09:32:11;18.07;;;5.90;;
13951;SDS011;39535;52.192;9.886;2023-11-19T09:34:37;20.57;;;4.90;;
13951;SDS011;39535;52.192;9.886;2023-11-19T09:37:05;11.70;;;4.47;;
13951;SDS011;39535;52.192;9.886;2023-11-19T09:39:32;23.83;;;4.40;;
13951;SDS011;39535;52.192;9.886;2023-11-19T09:41:59;18.50;;;5.43;;
13951;SDS011;39535;52.192;9.886;2023-11-19T09:44:25;13.47;;;4.17;;
13951;SDS011;39535;52.192;9.886;2023-11-19T09:46:52;27.57;;;4.70;;
13951;SDS011;39535;52.192;9.886;2023-11-19T09:49:20;21.83;;;5.10;;
13951;SDS011;39535;52.192;9.886;2023-11-19T09:51:49;16.73;;;5.33;;
13951;SDS011;39535;52.192;9.886;2023-11-19T09:54:17;21.43;;;6.30;;
13951;SDS011;39535;52.192;9.886;2023-11-19T09:56:44;13.27;;;4.93;;
13951;SDS011;39535;52.192;9.886;2023-11-19T09:59:11;17.47;;;4.93;;
13951;SDS011;39535;52.192;9.886;2023-11-19T10:01:38;16.27;;;6.07;;
13951;SDS011;39535;52.192;9.886;2023-11-19T10:04:04;20.10;;;5.30;;
13951;SDS011;39535;52.192;9.886;2023-11-19T10:06:32;18.40;;;6.57;;
13951;SDS011;39535;52.192;9.886;2023-11-19T10:08:59;22.30;;;5.67;;
13951;SDS011;39535;52.192;9.886;2023-11-19T10:11:27;14.77;;;5.90;;
13951;SDS011;39535;52.192;9.886;2023-11-19T10:13:53;21.97;;;4.53;;
13951;SDS011;39535;52.192;9.886;2023-11-19T10:16:20;14.43;;;4.37;;
13951;SDS011;39535;52.192;9.886;2023-11-19T10:18:47;19.43;;;4.90;;
13951;SDS011;39535;52.192;9.886;2023-11-19T10:21:16;21.03;;;5.10;;
13951;SDS011;39535;52.192;9.886;2023-11-19T10:23:50;14.87;;;4.80;;
13951;SDS011;39535;52.192;9.886;2023-11-19T10:26:18;20.90;;;5.20;;
13951;SDS011;39535;52.192;9.886;2023-11-19T10:28:48;10.73;;;4.50;;
13951;SDS011;39535;52.192;9.886;2023-11-19T10:31:15;15.63;;;4.60;;
13951;SDS011;39535;52.192;9.886;2023-11-19T10:33:42;24.47;;;5.53;;
13951;SDS011;39535;52.192;9.886;2023-11-19T10:36:10;9.10;;;3.60;;
13951;SDS011;39535;52.192;9.886;2023-11-19T10:38:37;18.30;;;4.60;;
13951;SDS011;39535;52.192;9.886;2023-11-19T10:41:04;12.47;;;4.23;;
13951;SDS011;39535;52.192;9.886;2023-11-19T10:43:31;14.63;;;3.87;;
13951;SDS011;39535;52.192;9.886;2023-11-19T10:46:09;16.10;;;4.97;;
13951;SDS011;39535;52.192;9.886;2023-11-19T10:48:38;14.07;;;4.70;;
13951;SDS011;39535;52.192;9.886;2023-11-19T10:51:05;18.13;;;4.50;;
13951;SDS011;39535;52.192;9.886;2023-11-19T10:53:33;12.80;;;4.97;;
13951;SDS011;39535;52.192;9.886;2023-11-19T10:56:02;16.13;;;6.43;;
13951;SDS011;39535;52.192;9.886;2023-11-19T10:58:33;15.67;;;5.13;;
13951;SDS011;39535;52.192;9.886;2023-11-19T11:01:03;13.33;;;4.77;;
13951;SDS011;39535;52.192;9.886;2023-11-19T11:03:39;15.03;;;4.93;;
13951;SDS011;39535;52.192;9.886;2023-11-19T11:06:06;18.03;;;6.33;;
13951;SDS011;39535;52.192;9.886;2023-11-19T11:08:34;14.80;;;5.57;;
13951;SDS011;39535;52.192;9.886;2023-11-19T11:11:03;18.43;;;4.97;;
13951;SDS011;39535;52.192;9.886;2023-11-19T11:13:31;20.07;;;6.30;;
13951;SDS011;39535;52.192;9.886;2023-11-19T11:15:58;21.97;;;7.57;;
13951;SDS011;39535;52.192;9.886;2023-11-19T11:18:25;15.50;;;5.57;;
13951;SDS011;39535;52.192;9.886;2023-11-19T11:20:55;17.03;;;5.70;;
13951;SDS011;39535;52.192;9.886;2023-11-19T11:23:37;21.07;;;6.27;;
13951;SDS011;39535;52.192;9.886;2023-11-19T11:26:29;18.03;;;5.10;;
13951;SDS011;39535;52.192;9.886;2023-11-19T11:29:26;23.70;;;5.17;;
13951;SDS011;39535;52.192;9.886;2023-11-19T11:32:05;22.57;;;4.70;;
13951;SDS011;39535;52.192;9.886;2023-11-19T11:34:43;14.43;;;4.70;;
13951;SDS011;39535;52.192;9.886;2023-11-19T11:37:24;14.67;;;6.10;;
13951;SDS011;39535;52.192;9.886;2023-11-19T11:39:56;13.10;;;4.70;;
13951;SDS011;39535;52.192;9.886;2023-11-19T11:42:33;19.50;;;5.53;;
13951;SDS011;39535;52.192;9.886;2023-11-19T11:45:01;16.80;;;5.17;;
13951;SDS011;39535;52.192;9.886;2023-11-19T11:50:47;15.80;;;5.47;;
13951;SDS011;39535;52.192;9.886;2023-11-19T11:53:33;15.73;;;4.93;;
13951;SDS011;39535;52.192;9.886;2023-11-19T11:56:08;25.50;;;6.67;;
13951;SDS011;39535;52.192;9.886;2023-11-19T11:58:41;21.47;;;5.37;;
13951;SDS011;39535;52.192;9.886;2023-11-19T12:01:14;24.20;;;6.20;;
13951;SDS011;39535;52.192;9.886;2023-11-19T12:04:12;24.13;;;5.37;;
13951;SDS011;39535;52.192;9.886;2023-11-19T12:07:35;15.73;;;6.10;;
13951;SDS011;39535;52.192;9.886;2023-11-19T12:10:16;19.80;;;6.03;;
13951;SDS011;39535;52.192;9.886;2023-11-19T12:13:04;17.77;;;5.07;;
13951;SDS011;39535;52.192;9.886;2023-11-19T12:18:50;17.03;;;5.33;;
13951;SDS011;39535;52.192;9.886;2023-11-19T12:21:28;23.07;;;5.30;;
13951;SDS011;39535;52.192;9.886;2023-11-19T12:23:55;20.07;;;6.20;;
13951;SDS011;39535;52.192;9.886;2023-11-19T12:26:38;19.93;;;5.27;;
13951;SDS011;39535;52.192;9.886;2023-11-19T12:31:32;18.83;;;6.17;;
13951;SDS011;39535;52.192;9.886;2023-11-19T12:34:04;16.07;;;5.27;;
13951;SDS011;39535;52.192;9.886;2023-11-19T12:36:31;15.17;;;4.97;;
13951;SDS011;39535;52.192;9.886;2023-11-19T12:39:07;16.27;;;5.30;;
13951;SDS011;39535;52.192;9.886;2023-11-19T12:41:49;19.07;;;4.27;;
13951;SDS011;39535;52.192;9.886;2023-11-19T12:44:17;22.57;;;5.33;;
13951;SDS011;39535;52.192;9.886;2023-11-19T12:46:44;13.80;;;4.47;;
13951;SDS011;39535;52.192;9.886;2023-11-19T12:49:12;19.83;;;5.27;;
13951;SDS011;39535;52.192;9.886;2023-11-19T12:51:42;18.17;;;4.73;;
13951;SDS011;39535;52.192;9.886;2023-11-19T12:54:08;12.97;;;4.27;;
13951;SDS011;39535;52.192;9.886;2023-11-19T13:02:22;9.30;;;3.40;;
13951;SDS011;39535;52.192;9.886;2023-11-19T13:04:51;12.43;;;4.77;;
13951;SDS011;39535;52.192;9.886;2023-11-19T13:07:22;15.20;;;4.03;;
13951;SDS011;39535;52.192;9.886;2023-11-19T13:09:51;14.43;;;4.13;;
13951;SDS011;39535;52.192;9.886;2023-11-19T13:12:28;15.23;;;5.00;;
13951;SDS011;39535;52.192;9.886;2023-11-19T13:14:55;14.47;;;5.67;;
13951;SDS011;39535;52.192;9.886;2023-11-19T13:17:21;13.43;;;5.67;;
13951;SDS011;39535;52.192;9.886;2023-11-19T13:19:48;18.83;;;5.90;;
13951;SDS011;39535;52.192;9.886;2023-11-19T13:22:15;11.47;;;4.47;;
13951;SDS011;39535;52.192;9.886;2023-11-19T13:24:42;17.47;;;4.63;;
13951;SDS011;39535;52.192;9.886;2023-11-19T13:27:08;20.43;;;4.93;;
13951;SDS011;39535;52.192;9.886;2023-11-19T13:29:36;12.90;;;6.27;;
13951;SDS011;39535;52.192;9.886;2023-11-19T13:32:03;18.33;;;7.77;;
13951;SDS011;39535;52.192;9.886;2023-11-19T13:34:30;17.83;;;5.43;;
13951;SDS011;39535;52.192;9.886;2023-11-19T13:36:57;15.80;;;5.30;;
13951;SDS011;39535;52.192;9.886;2023-11-19T13:39:23;16.47;;;5.10;;
13951;SDS011;39535;52.192;9.886;2023-11-19T13:41:50;16.83;;;6.20;;
13951;SDS011;39535;52.192;9.886;2023-11-19T13:44:16;17.17;;;4.47;;
13951;SDS011;39535;52.192;9.886;2023-11-19T13:46:45;16.73;;;4.77;;
13951;SDS011;39535;52.192;9.886;2023-11-19T13:49:12;15.50;;;4.60;;
13951;SDS011;39535;52.192;9.886;2023-11-19T13:51:38;16.37;;;5.23;;
13951;SDS011;39535;52.192;9.886;2023-11-19T13:54:05;19.07;;;5.60;;
13951;SDS011;39535;52.192;9.886;2023-11-19T13:56:31;19.40;;;5.73;;
13951;SDS011;39535;52.192;9.886;2023-11-19T13:58:58;11.60;;;5.37;;
13951;SDS011;39535;52.192;9.886;2023-11-19T14:01:25;22.60;;;6.00;;
13951;SDS011;39535;52.192;9.886;2023-11-19T14:03:53;17.70;;;5.60;;
13951;SDS011;39535;52.192;9.886;2023-11-19T14:06:19;16.43;;;4.83;;
13951;SDS011;39535;52.192;9.886;2023-11-19T14:08:46;20.37;;;6.03;;
13951;SDS011;39535;52.192;9.886;2023-11-19T14:11:12;16.97;;;5.47;;
13951;SDS011;39535;52.192;9.886;2023-11-19T14:13:39;11.00;;;4.80;;
13951;SDS011;39535;52.192;9.886;2023-11-19T14:16:05;21.03;;;5.47;;
13951;SDS011;39535;52.192;9.886;2023-11-19T14:18:33;14.10;;;5.17;;
13951;SDS011;39535;52.192;9.886;2023-11-19T14:21:02;15.67;;;5.63;;
13951;SDS011;39535;52.192;9.886;2023-11-19T14:23:29;12.60;;;5.47;;
13951;SDS011;39535;52.192;9.886;2023-11-19T14:25:56;15.40;;;5.33;;
13951;SDS011;39535;52.192;9.886;2023-11-19T14:28:22;15.97;;;4.63;;
13951;SDS011;39535;52.192;9.886;2023-11-19T14:30:50;22.07;;;5.27;;
13951;SDS011;39535;52.192;9.886;2023-11-19T14:33:21;14.83;;;4.43;;
13951;SDS011;39535;52.192;9.886;2023-11-19T14:35:48;15.77;;;4.53;;
13951;SDS011;39535;52.192;9.886;2023-11-19T14:38:16;10.30;;;4.63;;
13951;SDS011;39535;52.192;9.886;2023-11-19T14:40:42;10.77;;;4.37;;
13951;SDS011;39535;52.192;9.886;2023-11-19T14:43:09;17.67;;;4.73;;
13951;SDS011;39535;52.192;9.886;2023-11-19T14:45:36;17.00;;;4.83;;
13951;SDS011;39535;52.192;9.886;2023-11-19T14:48:02;14.97;;;4.70;;
13951;SDS011;39535;52.192;9.886;2023-11-19T14:50:29;18.23;;;4.93;;
13951;SDS011;39535;52.192;9.886;2023-11-19T14:52:55;15.80;;;4.97;;
13951;SDS011;39535;52.192;9.886;2023-11-19T14:55:23;13.80;;;4.80;;
13951;SDS011;39535;52.192;9.886;2023-11-19T14:57:51;12.07;;;5.37;;
13951;SDS011;39535;52.192;9.886;2023-11-19T15:00:17;10.73;;;4.27;;